createdAt,value
2018-03-16T00:00:24.362Z,7.54
2018-03-16T00:02:50.386Z,7.53
2018-03-16T00:05:16.396Z,7.53
2018-03-16T00:07:42.541Z,7.51
2018-03-16T00:10:08.538Z,7.50
2018-03-16T00:12:34.791Z,7.54
2018-03-16T00:15:00.846Z,7.50
2018-03-16T00:17:26.890Z,7.48
2018-03-16T00:19:52.946Z,7.46
2018-03-16T00:22:31.180Z,7.46
2018-03-16T00:24:57.251Z,7.45
2018-03-16T00:27:23.469Z,7.44
2018-03-16T00:29:49.461Z,7.46
2018-03-16T00:32:16.231Z,7.44
2018-03-16T00:34:42.369Z,7.43
2018-03-16T00:37:08.448Z,7.44
2018-03-16T00:39:34.441Z,7.44
2018-03-16T00:42:00.583Z,7.42
2018-03-16T00:44:26.598Z,7.42
2018-03-16T00:46:52.594Z,7.45
2018-03-16T00:49:18.642Z,7.47
2018-03-16T00:51:44.728Z,7.44
2018-03-16T00:54:10.833Z,7.44
2018-03-16T00:56:36.840Z,7.41
2018-03-16T00:59:02.872Z,7.44
2018-03-16T01:01:28.974Z,7.42
2018-03-16T01:03:54.982Z,7.41
2018-03-16T01:06:20.984Z,7.40
2018-03-16T01:08:47.017Z,7.40
2018-03-16T01:11:13.036Z,7.38
2018-03-16T01:13:39.046Z,7.40
2018-03-16T01:16:05.055Z,7.40
2018-03-16T01:18:31.041Z,7.41
2018-03-16T01:20:57.045Z,7.41
2018-03-16T01:23:23.034Z,7.42
2018-03-16T01:25:49.105Z,7.45
2018-03-16T01:28:15.111Z,7.45
2018-03-16T01:30:41.136Z,7.45
2018-03-16T01:33:07.155Z,7.43
2018-03-16T01:35:33.154Z,7.41
2018-03-16T01:37:59.280Z,7.41
2018-03-16T01:40:25.301Z,7.42
2018-03-16T01:42:51.350Z,7.43
2018-03-16T01:45:17.376Z,7.40
2018-03-16T01:47:43.385Z,7.42
2018-03-16T01:50:09.398Z,7.43
2018-03-16T01:52:35.423Z,7.43
2018-03-16T01:55:01.500Z,7.44
2018-03-16T01:57:27.517Z,7.46
2018-03-16T01:59:53.547Z,7.46
2018-03-16T02:02:19.592Z,7.44
2018-03-16T02:04:45.601Z,7.44
2018-03-16T02:07:11.690Z,7.48
2018-03-16T02:09:37.794Z,7.45
2018-03-16T02:12:03.791Z,7.47
2018-03-16T02:14:29.804Z,7.44
2018-03-16T02:16:55.881Z,7.45
2018-03-16T02:19:21.888Z,7.44
2018-03-16T02:21:47.910Z,7.44
2018-03-16T02:24:14.034Z,7.47
2018-03-16T02:26:41.077Z,7.45
2018-03-16T02:29:07.163Z,7.46
2018-03-16T02:31:33.192Z,7.45
2018-03-16T02:33:59.193Z,7.46
2018-03-16T02:36:25.201Z,7.47
2018-03-16T02:38:51.206Z,7.48
2018-03-16T02:41:17.189Z,7.49
2018-03-16T02:43:43.258Z,7.47
2018-03-16T02:46:09.362Z,7.46
2018-03-16T02:48:35.864Z,7.46
2018-03-16T02:51:02.312Z,7.44
2018-03-16T02:53:28.456Z,7.45
2018-03-16T02:55:54.501Z,7.46
2018-03-16T02:58:20.499Z,7.44
2018-03-16T03:00:46.648Z,7.42
2018-03-16T03:03:12.660Z,7.44
2018-03-16T03:05:38.693Z,7.44
2018-03-16T03:08:04.701Z,7.44
2018-03-16T03:10:30.735Z,7.44
2018-03-16T03:12:56.744Z,7.45
2018-03-16T03:15:22.780Z,7.43
2018-03-16T03:17:49.101Z,7.47
2018-03-16T03:20:15.122Z,7.45
2018-03-16T03:22:41.120Z,7.44
2018-03-16T03:25:07.140Z,7.45
2018-03-16T03:27:33.166Z,7.44
2018-03-16T03:29:59.162Z,7.46
2018-03-16T03:32:25.302Z,7.47
2018-03-16T03:34:51.646Z,7.44
2018-03-16T03:37:17.766Z,7.46
2018-03-16T03:39:43.796Z,7.44
2018-03-16T03:42:09.890Z,7.43
2018-03-16T03:44:36.235Z,7.42
2018-03-16T03:47:02.418Z,7.40
2018-03-16T03:49:28.548Z,7.40
2018-03-16T03:51:54.575Z,7.40
2018-03-16T03:54:21.003Z,7.41
2018-03-16T03:56:47.024Z,7.42
2018-03-16T03:59:13.028Z,7.40
2018-03-16T04:01:39.038Z,7.42
2018-03-16T04:04:05.070Z,7.43
2018-03-16T04:06:31.082Z,7.41
2018-03-16T04:08:57.119Z,7.40
2018-03-16T04:11:23.120Z,7.40
2018-03-16T04:13:49.140Z,7.38
2018-03-16T04:16:15.189Z,7.39
2018-03-16T04:18:41.284Z,7.40
2018-03-16T04:21:07.410Z,7.40
2018-03-16T04:23:33.482Z,7.38
2018-03-16T04:25:59.554Z,7.38
2018-03-16T04:28:26.043Z,7.39
2018-03-16T04:30:52.055Z,7.38
2018-03-16T04:33:18.076Z,7.42
2018-03-16T04:35:44.177Z,7.41
2018-03-16T04:38:10.299Z,7.40
2018-03-16T04:40:36.385Z,7.39
2018-03-16T04:43:02.421Z,7.41
2018-03-16T04:45:28.483Z,7.38
2018-03-16T04:47:54.515Z,7.38
2018-03-16T04:50:20.518Z,7.36
2018-03-16T04:52:46.565Z,7.34
2018-03-16T04:55:13.179Z,7.34
2018-03-16T04:57:39.271Z,7.34
2018-03-16T05:00:05.274Z,7.34
2018-03-16T05:02:31.342Z,7.34
2018-03-16T05:04:57.411Z,7.37
2018-03-16T05:07:24.056Z,7.37
2018-03-16T05:09:50.497Z,7.37
2018-03-16T05:12:17.036Z,7.38
2018-03-16T05:14:43.118Z,7.37
2018-03-16T05:17:09.205Z,7.36
2018-03-16T05:19:35.194Z,7.37
2018-03-16T05:22:01.216Z,7.36
2018-03-16T05:24:27.201Z,7.35
2018-03-16T05:26:53.218Z,7.38
2018-03-16T05:29:19.252Z,7.35
2018-03-16T05:31:45.387Z,7.34
2018-03-16T05:34:11.588Z,7.32
2018-03-16T05:36:37.920Z,7.36
2018-03-16T05:39:04.450Z,7.34
2018-03-16T05:41:30.511Z,7.33
2018-03-16T05:43:56.625Z,7.36
2018-03-16T05:46:22.636Z,7.32
2018-03-16T05:48:48.649Z,7.33
2018-03-16T05:51:14.733Z,7.33
2018-03-16T05:53:40.790Z,7.34
2018-03-16T05:56:07.094Z,7.34
2018-03-16T05:58:33.125Z,7.34
2018-03-16T06:00:59.134Z,7.34
2018-03-16T06:03:25.142Z,7.35
2018-03-16T06:05:51.250Z,7.38
2018-03-16T06:08:17.317Z,7.38
2018-03-16T06:10:43.326Z,7.38
2018-03-16T06:13:09.330Z,7.40
2018-03-16T06:15:35.423Z,7.39
2018-03-16T06:18:01.452Z,7.39
2018-03-16T06:20:27.517Z,7.40
2018-03-16T06:22:53.492Z,7.40
2018-03-16T06:25:19.512Z,7.39
2018-03-16T06:27:45.657Z,7.40
2018-03-16T06:30:12.121Z,7.41
2018-03-16T06:32:38.125Z,7.41
2018-03-16T06:35:04.250Z,7.40
2018-03-16T06:37:30.343Z,7.43
2018-03-16T06:39:56.453Z,7.44
2018-03-16T06:42:22.553Z,7.46
2018-03-16T06:44:48.697Z,7.47
2018-03-16T06:47:14.655Z,7.47
2018-03-16T06:49:40.757Z,7.49
2018-03-16T06:52:06.779Z,7.47
2018-03-16T06:54:32.791Z,7.45
2018-03-16T06:56:58.822Z,7.48
2018-03-16T06:59:24.878Z,7.47
2018-03-16T07:01:50.880Z,7.46
2018-03-16T07:04:16.905Z,7.47
2018-03-16T07:06:42.972Z,7.44
2018-03-16T07:09:09.080Z,7.43
2018-03-16T07:11:35.133Z,7.42
2018-03-16T07:14:01.294Z,7.41
2018-03-16T07:16:27.330Z,7.43
2018-03-16T07:18:53.368Z,7.42
2018-03-16T07:21:19.455Z,7.40
2018-03-16T07:23:45.539Z,7.37
2018-03-16T07:26:11.567Z,7.42
2018-03-16T07:28:37.607Z,7.38
2018-03-16T07:31:03.682Z,7.39
2018-03-16T07:33:29.765Z,7.38
2018-03-16T07:35:55.769Z,7.40
2018-03-16T07:38:21.827Z,7.38
2018-03-16T07:40:47.846Z,7.39
2018-03-16T07:43:13.989Z,7.37
2018-03-16T07:45:45.966Z,7.37
2018-03-16T07:48:11.973Z,7.38
2018-03-16T07:50:38.098Z,7.37
2018-03-16T07:53:04.258Z,7.38
2018-03-16T07:55:30.462Z,7.41
2018-03-16T08:00:29.168Z,7.43
2018-03-16T08:02:55.253Z,7.42
2018-03-16T08:05:21.277Z,7.43
2018-03-16T08:07:47.359Z,7.42
2018-03-16T08:10:13.369Z,7.43
2018-03-16T08:12:39.442Z,7.33
2018-03-16T08:15:05.462Z,7.37
2018-03-16T08:17:32.224Z,7.34
2018-03-16T08:19:58.342Z,7.34
2018-03-16T08:22:24.469Z,7.36
2018-03-16T08:24:50.464Z,7.32
2018-03-16T08:27:16.534Z,7.38
2018-03-16T08:29:42.612Z,7.39
2018-03-16T08:32:08.643Z,7.40
2018-03-16T08:34:34.676Z,7.39
2018-03-16T08:37:00.771Z,7.41
2018-03-16T08:39:26.802Z,7.46
2018-03-16T08:41:52.812Z,7.41
2018-03-16T08:44:18.933Z,7.37
2018-03-16T08:46:44.974Z,7.37
2018-03-16T08:49:11.057Z,7.33
2018-03-16T08:51:37.122Z,7.27
2018-03-16T08:54:03.134Z,7.26
2018-03-16T08:56:29.205Z,7.30
2018-03-16T08:58:55.212Z,7.33
2018-03-16T09:01:21.228Z,7.33
2018-03-16T09:03:47.262Z,7.33
2018-03-16T09:06:13.291Z,7.29
2018-03-16T09:08:39.307Z,7.32
2018-03-16T09:11:05.439Z,7.33
2018-03-16T09:13:31.623Z,7.32
2018-03-16T09:15:57.669Z,7.34
2018-03-16T09:18:23.949Z,7.37
2018-03-16T09:20:50.094Z,7.35
2018-03-16T09:23:16.199Z,7.36
2018-03-16T09:25:42.344Z,7.36
2018-03-16T09:28:08.604Z,7.39
2018-03-16T09:30:34.642Z,7.44
2018-03-16T09:33:00.687Z,7.40
2018-03-16T09:35:26.764Z,7.36
2018-03-16T09:37:52.841Z,7.36
2018-03-16T09:40:18.869Z,7.33
2018-03-16T09:42:44.869Z,7.34
2018-03-16T09:45:10.869Z,7.32
2018-03-16T09:47:36.870Z,7.37
2018-03-16T09:50:02.976Z,7.32
2018-03-16T09:52:28.985Z,7.34
2018-03-16T09:55:07.094Z,7.33
2018-03-16T09:57:33.114Z,7.18
2018-03-16T09:59:59.163Z,7.29
2018-03-16T10:02:25.185Z,7.26
2018-03-16T10:04:51.269Z,7.30
2018-03-16T10:07:17.296Z,7.33
2018-03-16T10:09:43.356Z,7.33
2018-03-16T10:12:09.387Z,7.35
2018-03-16T10:14:35.419Z,7.30
2018-03-16T10:17:01.507Z,7.30
2018-03-16T10:19:27.566Z,7.24
2018-03-16T10:21:53.583Z,7.24
2018-03-16T10:24:19.590Z,7.27
2018-03-16T10:26:45.721Z,7.21
2018-03-16T10:29:11.775Z,7.22
2018-03-16T10:31:37.826Z,7.24
2018-03-16T10:34:03.864Z,7.25
2018-03-16T10:36:30.007Z,7.25
2018-03-16T10:38:56.149Z,7.26
2018-03-16T10:41:22.403Z,7.27
2018-03-16T10:43:48.521Z,7.26
2018-03-16T10:46:14.570Z,7.20
2018-03-16T10:48:40.632Z,7.20
2018-03-16T10:51:06.804Z,7.15
2018-03-16T10:53:32.872Z,7.18
2018-03-16T10:55:58.927Z,7.11
2018-03-16T10:58:24.972Z,7.15
2018-03-16T11:00:56.886Z,7.10
2018-03-16T11:03:22.940Z,7.13
2018-03-16T11:05:53.947Z,7.14
2018-03-16T11:08:26.208Z,7.13
2018-03-16T11:10:52.237Z,7.02
2018-03-16T11:13:18.302Z,7.08
2018-03-16T11:15:44.418Z,7.07
2018-03-16T11:18:10.574Z,7.01
2018-03-16T11:20:36.616Z,7.03
2018-03-16T11:23:02.655Z,6.96
2018-03-16T11:25:28.728Z,6.96
2018-03-16T11:27:54.784Z,6.97
2018-03-16T11:30:20.843Z,6.97
2018-03-16T11:32:46.953Z,7.01
2018-03-16T11:35:13.056Z,6.99
2018-03-16T11:37:39.094Z,7.00
2018-03-16T11:40:05.114Z,6.97
2018-03-16T11:42:31.194Z,6.94
2018-03-16T11:44:57.288Z,6.95
2018-03-16T11:47:23.349Z,6.95
2018-03-16T11:49:49.382Z,6.95
2018-03-16T11:52:15.449Z,6.92
2018-03-16T11:54:41.543Z,6.89
2018-03-16T11:57:07.610Z,6.89
2018-03-16T11:59:33.800Z,6.92
2018-03-16T12:01:59.997Z,6.90
2018-03-16T12:04:26.223Z,6.90
2018-03-16T12:06:52.367Z,6.94
2018-03-16T12:09:18.401Z,6.90
2018-03-16T12:11:44.486Z,6.83
2018-03-16T12:14:11.061Z,6.83
2018-03-16T12:16:37.089Z,6.80
2018-03-16T12:19:03.108Z,6.74
2018-03-16T12:21:29.136Z,6.75
2018-03-16T12:23:55.227Z,6.72
2018-03-16T12:26:21.255Z,6.76
2018-03-16T12:28:49.951Z,6.77
2018-03-16T12:31:13.429Z,6.77
2018-03-16T12:33:40.485Z,6.72
2018-03-16T12:36:06.547Z,6.77
2018-03-16T12:38:32.684Z,6.74
2018-03-16T12:40:58.727Z,6.72
2018-03-16T12:43:24.744Z,6.78
2018-03-16T12:45:50.794Z,6.77
2018-03-16T12:48:16.930Z,6.78
2018-03-16T12:50:42.973Z,6.79
2018-03-16T12:53:09.070Z,6.80
2018-03-16T12:55:36.448Z,6.80
2018-03-16T12:58:02.535Z,6.74
2018-03-16T13:00:28.797Z,6.78
2018-03-16T13:02:54.971Z,6.78
2018-03-16T13:05:21.039Z,6.72
2018-03-16T13:07:47.107Z,6.78
2018-03-16T13:10:13.142Z,6.78
2018-03-16T13:12:39.196Z,6.69
2018-03-16T13:15:05.392Z,6.75
2018-03-16T13:17:31.438Z,6.84
2018-03-16T13:19:57.532Z,6.82
2018-03-16T13:22:23.628Z,6.89
2018-03-16T13:24:49.655Z,6.97
2018-03-16T13:27:15.680Z,7.01
2018-03-16T13:29:41.704Z,7.01
2018-03-16T13:32:07.829Z,6.98
2018-03-16T13:34:33.892Z,7.00
2018-03-16T13:36:59.918Z,7.01
2018-03-16T13:39:26.119Z,6.94
2018-03-16T13:41:52.192Z,6.89
2018-03-16T13:44:18.298Z,6.86
2018-03-16T13:46:44.366Z,6.90
2018-03-16T13:49:10.470Z,6.91
2018-03-16T13:51:36.630Z,6.94
2018-03-16T13:54:02.768Z,7.00
2018-03-16T13:56:28.841Z,6.99
2018-03-16T13:58:54.886Z,6.96
2018-03-16T14:01:20.911Z,6.98
2018-03-16T14:03:47.089Z,6.94
2018-03-16T14:06:13.193Z,6.96
2018-03-16T14:08:39.281Z,6.96
2018-03-16T14:11:05.304Z,6.97
2018-03-16T14:13:31.351Z,7.02
2018-03-16T14:15:57.414Z,7.07
2018-03-16T14:18:23.533Z,6.96
2018-03-16T14:20:49.562Z,6.94
2018-03-16T14:23:15.660Z,6.95
2018-03-16T14:25:41.708Z,6.89
2018-03-16T14:28:07.858Z,6.86
2018-03-16T14:30:33.869Z,6.93
2018-03-16T14:32:59.946Z,7.05
2018-03-16T14:35:26.011Z,7.11
2018-03-16T14:37:52.178Z,7.16
2018-03-16T14:40:18.352Z,6.97
2018-03-16T14:42:44.550Z,6.88
2018-03-16T14:45:10.563Z,6.94
2018-03-16T14:47:36.640Z,6.94
2018-03-16T14:50:02.764Z,6.77
2018-03-16T14:52:28.779Z,6.72
2018-03-16T14:54:54.870Z,6.74
2018-03-16T14:57:20.864Z,6.76
2018-03-16T14:59:46.906Z,6.76
2018-03-16T15:02:12.944Z,6.73
2018-03-16T15:04:38.986Z,6.81
2018-03-16T15:07:05.002Z,6.88
2018-03-16T15:09:31.054Z,6.99
2018-03-16T15:11:57.091Z,6.87
2018-03-16T15:14:23.110Z,6.77
2018-03-16T15:16:49.173Z,6.68
2018-03-16T15:19:15.170Z,6.65
2018-03-16T15:21:41.312Z,6.71
2018-03-16T15:24:07.308Z,6.70
2018-03-16T15:26:33.344Z,6.62
2018-03-16T15:28:59.537Z,6.62
2018-03-16T15:31:25.590Z,6.51
2018-03-16T15:33:51.742Z,6.50
2018-03-16T15:36:17.895Z,6.38
2018-03-16T15:38:43.998Z,6.44
2018-03-16T15:41:10.711Z,6.28
2018-03-16T15:43:36.753Z,6.35
2018-03-16T15:46:02.843Z,6.37
2018-03-16T15:48:29.048Z,6.28
2018-03-16T15:50:55.089Z,6.26
2018-03-16T15:53:21.111Z,6.14
2018-03-16T15:55:47.145Z,6.09
2018-03-16T15:58:13.138Z,6.10
2018-03-16T16:00:39.130Z,6.05
2018-03-16T16:03:05.188Z,5.98
2018-03-16T16:05:31.347Z,5.93
2018-03-16T16:07:57.340Z,5.97
2018-03-16T16:10:23.339Z,5.90
2018-03-16T16:12:49.365Z,5.87
2018-03-16T16:15:15.421Z,5.73
2018-03-16T16:17:41.555Z,5.68
2018-03-16T16:20:07.577Z,5.69
2018-03-16T16:22:33.773Z,5.65
2018-03-16T16:24:59.805Z,5.64
2018-03-16T16:27:25.856Z,5.47
2018-03-16T16:29:51.952Z,5.41
2018-03-16T16:32:18.102Z,5.29
2018-03-16T16:34:44.163Z,5.21
2018-03-16T16:37:10.191Z,5.16
2018-03-16T16:39:36.305Z,5.02
2018-03-16T16:42:02.445Z,4.98
2018-03-16T16:44:28.558Z,4.96
2018-03-16T16:46:54.567Z,4.90
2018-03-16T16:49:20.586Z,4.87
2018-03-16T16:51:46.846Z,4.83
2018-03-16T16:54:12.805Z,4.82
2018-03-16T16:56:38.840Z,4.73
2018-03-16T16:59:04.869Z,4.65
2018-03-16T17:01:30.929Z,4.62
2018-03-16T17:03:56.933Z,4.59
2018-03-16T17:06:22.954Z,4.62
2018-03-16T17:08:48.962Z,4.57
2018-03-16T17:11:15.021Z,4.55
2018-03-16T17:13:41.020Z,4.49
2018-03-16T17:16:07.042Z,4.48
2018-03-16T17:18:33.720Z,4.35
2018-03-16T17:20:59.774Z,4.25
2018-03-16T17:23:25.803Z,4.15
2018-03-16T17:25:51.832Z,4.12
2018-03-16T17:28:17.998Z,4.08
2018-03-16T17:30:44.666Z,3.99
2018-03-16T17:33:11.016Z,3.98
2018-03-16T17:35:44.107Z,3.91
2018-03-16T17:38:11.089Z,3.94
2018-03-16T17:40:37.127Z,3.91
2018-03-16T17:43:03.131Z,3.92
2018-03-16T17:45:29.151Z,3.89
2018-03-16T17:47:55.176Z,3.81
2018-03-16T17:50:21.240Z,3.73
2018-03-16T17:52:47.239Z,3.70
2018-03-16T17:55:13.262Z,3.66
2018-03-16T17:57:39.267Z,3.59
2018-03-16T18:00:05.289Z,3.53
2018-03-16T18:02:31.606Z,3.49
2018-03-16T18:04:57.687Z,3.43
2018-03-16T18:07:23.757Z,3.44
2018-03-16T18:09:49.841Z,3.45
2018-03-16T18:12:15.930Z,3.39
2018-03-16T18:14:41.999Z,3.40
2018-03-16T18:17:08.089Z,3.31
2018-03-16T18:19:34.123Z,3.32
2018-03-16T18:22:00.331Z,3.23
2018-03-16T18:24:26.347Z,3.26
2018-03-16T18:26:52.381Z,3.18
2018-03-16T18:29:18.503Z,3.18
2018-03-16T18:31:44.658Z,3.18
2018-03-16T18:34:10.725Z,3.08
2018-03-16T18:36:36.758Z,3.03
2018-03-16T18:39:02.934Z,2.97
2018-03-16T18:41:28.946Z,2.92
2018-03-16T18:43:54.993Z,2.88
2018-03-16T18:46:21.002Z,2.91
2018-03-16T18:48:47.092Z,2.88
2018-03-16T18:51:13.189Z,2.88
2018-03-16T18:53:39.315Z,2.90
2018-03-16T18:56:05.398Z,2.92
2018-03-16T18:58:32.143Z,2.92
2018-03-16T19:00:58.226Z,2.93
2018-03-16T19:03:24.381Z,2.89
2018-03-16T19:05:50.461Z,2.92
2018-03-16T19:08:16.478Z,2.86
2018-03-16T19:10:42.638Z,2.86
2018-03-16T19:13:08.926Z,2.82
2018-03-16T19:15:35.013Z,2.80
2018-03-16T19:18:01.107Z,2.79
2018-03-16T19:20:27.129Z,2.80
2018-03-16T19:22:53.130Z,2.77
2018-03-16T19:25:19.167Z,2.78
2018-03-16T19:27:45.198Z,2.77
2018-03-16T19:30:11.198Z,2.77
2018-03-16T19:32:37.253Z,2.77
2018-03-16T19:35:03.314Z,2.77
2018-03-16T19:37:29.412Z,2.76
2018-03-16T19:39:55.510Z,2.72
2018-03-16T19:42:21.523Z,2.71
2018-03-16T19:44:47.559Z,2.68
2018-03-16T19:47:13.657Z,2.64
2018-03-16T19:49:39.695Z,2.63
2018-03-16T19:52:05.724Z,2.60
2018-03-16T19:54:31.764Z,2.52
2018-03-16T19:56:57.849Z,2.50
2018-03-16T19:59:23.910Z,2.49
2018-03-16T20:01:49.937Z,2.47
2018-03-16T20:04:15.983Z,2.45
2018-03-16T20:06:42.191Z,2.44
2018-03-16T20:09:08.228Z,2.42
2018-03-16T20:11:34.270Z,2.40
2018-03-16T20:14:00.382Z,2.35
2018-03-16T20:16:26.580Z,2.33
2018-03-16T20:18:52.646Z,2.26
2018-03-16T20:21:18.674Z,2.27
2018-03-16T20:23:44.803Z,2.31
2018-03-16T20:26:10.978Z,2.27
2018-03-16T20:28:37.024Z,2.22
2018-03-16T20:31:03.078Z,2.21
2018-03-16T20:33:29.155Z,2.16
2018-03-16T20:35:55.203Z,2.13
2018-03-16T20:38:21.402Z,2.05
2018-03-16T20:40:47.438Z,2.00
2018-03-16T20:43:13.503Z,1.99
2018-03-16T20:45:39.567Z,2.01
2018-03-16T20:48:05.588Z,1.96
2018-03-16T20:50:31.652Z,1.95
2018-03-16T20:52:57.853Z,1.95
2018-03-16T20:55:23.924Z,1.92
2018-03-16T20:57:49.944Z,1.89
2018-03-16T21:00:16.157Z,1.84
2018-03-16T21:02:42.287Z,1.83
2018-03-16T21:05:08.374Z,1.83
2018-03-16T21:07:34.463Z,1.81
2018-03-16T21:10:00.612Z,1.81
2018-03-16T21:12:26.693Z,1.79
2018-03-16T21:14:52.762Z,1.79
2018-03-16T21:17:18.787Z,1.76
2018-03-16T21:19:44.799Z,1.74
2018-03-16T21:22:11.020Z,1.75
2018-03-16T21:24:37.063Z,1.69
2018-03-16T21:27:03.287Z,1.66
2018-03-16T21:29:29.330Z,1.59
2018-03-16T21:31:55.352Z,1.58
2018-03-16T21:34:21.418Z,1.56
2018-03-16T21:36:47.529Z,1.53
2018-03-16T21:39:13.631Z,1.53
2018-03-16T21:41:39.645Z,1.52
2018-03-16T21:44:05.678Z,1.50
2018-03-16T21:46:31.704Z,1.46
2018-03-16T21:48:58.703Z,1.45
2018-03-16T21:51:24.735Z,1.43
2018-03-16T21:53:50.886Z,1.41
2018-03-16T21:56:17.006Z,1.43
2018-03-16T21:58:43.058Z,1.41
2018-03-16T22:01:09.157Z,1.43
2018-03-16T22:03:35.688Z,1.43
2018-03-16T22:06:01.936Z,1.41
2018-03-16T22:08:28.366Z,1.36
2018-03-16T22:10:54.396Z,1.38
2018-03-16T22:13:20.450Z,1.37
2018-03-16T22:15:46.557Z,1.35
2018-03-16T22:18:13.207Z,1.38
2018-03-16T22:20:39.249Z,1.38
2018-03-16T22:23:05.278Z,1.36
2018-03-16T22:25:31.341Z,1.37
2018-03-16T22:27:57.354Z,1.40
2018-03-16T22:30:23.405Z,1.38
2018-03-16T22:32:49.456Z,1.31
2018-03-16T22:35:15.485Z,1.31
2018-03-16T22:37:41.491Z,1.29
2018-03-16T22:40:07.545Z,1.28
2018-03-16T22:42:33.555Z,1.25
2018-03-16T22:44:59.550Z,1.25
2018-03-16T22:47:25.647Z,1.26
2018-03-16T22:49:51.646Z,1.24
2018-03-16T22:52:17.748Z,1.16
2018-03-16T22:54:43.793Z,1.19
2018-03-16T22:57:09.847Z,1.17
2018-03-16T22:59:35.893Z,1.14
2018-03-16T23:02:02.086Z,1.09
2018-03-16T23:04:28.174Z,1.05
2018-03-16T23:06:54.409Z,1.04
2018-03-16T23:09:20.447Z,1.05
2018-03-16T23:11:47.090Z,1.02
2018-03-16T23:14:13.136Z,1.03
2018-03-16T23:16:39.178Z,0.99
2018-03-16T23:19:05.243Z,1.00
2018-03-16T23:21:31.433Z,1.00
2018-03-16T23:23:57.472Z,1.01
2018-03-16T23:26:23.522Z,0.98
2018-03-16T23:28:50.434Z,0.99
2018-03-16T23:31:16.525Z,0.98
2018-03-16T23:33:42.700Z,0.98
2018-03-16T23:36:08.759Z,0.91
2018-03-16T23:38:34.813Z,0.90
2018-03-16T23:41:00.909Z,0.89
2018-03-16T23:43:26.906Z,0.85
2018-03-16T23:45:52.922Z,0.80
2018-03-16T23:48:18.946Z,0.82
2018-03-16T23:50:44.947Z,0.79
2018-03-16T23:53:10.971Z,0.78
2018-03-16T23:55:37.002Z,0.78
2018-03-16T23:58:03.098Z,0.75
